sensor_id;sensor_type;location;lat;lon;timestamp;P1;durP1;ratioP1;P2;durP2;ratioP2
16516;SDS011;8371;52.272;9.746;2023-11-18T00:02:17;5.90;;;5.40;;
16516;SDS011;8371;52.272;9.746;2023-11-18T00:04:43;5.97;;;5.57;;
16516;SDS011;8371;52.272;9.746;2023-11-18T00:07:08;5.23;;;4.97;;
16516;SDS011;8371;52.272;9.746;2023-11-18T00:09:34;5.33;;;5.13;;
16516;SDS011;8371;52.272;9.746;2023-11-18T00:12:00;5.53;;;5.33;;
16516;SDS011;8371;52.272;9.746;2023-11-18T00:14:26;5.27;;;5.07;;
16516;SDS011;8371;52.272;9.746;2023-11-18T00:16:52;5.30;;;5.03;;
16516;SDS011;8371;52.272;9.746;2023-11-18T00:19:18;4.60;;;4.40;;
16516;SDS011;8371;52.272;9.746;2023-11-18T00:21:43;4.87;;;4.67;;
16516;SDS011;8371;52.272;9.746;2023-11-18T00:24:09;4.70;;;4.50;;
16516;SDS011;8371;52.272;9.746;2023-11-18T00:26:35;5.33;;;5.10;;
16516;SDS011;8371;52.272;9.746;2023-11-18T00:29:01;5.67;;;5.37;;
16516;SDS011;8371;52.272;9.746;2023-11-18T00:31:26;6.40;;;6.00;;
16516;SDS011;8371;52.272;9.746;2023-11-18T00:33:52;5.90;;;5.67;;
16516;SDS011;8371;52.272;9.746;2023-11-18T00:36:18;5.70;;;5.50;;
16516;SDS011;8371;52.272;9.746;2023-11-18T00:38:44;5.87;;;5.63;;
16516;SDS011;8371;52.272;9.746;2023-11-18T00:41:09;5.83;;;5.43;;
16516;SDS011;8371;52.272;9.746;2023-11-18T00:43:35;5.93;;;5.63;;
16516;SDS011;8371;52.272;9.746;2023-11-18T00:46:01;6.07;;;5.70;;
16516;SDS011;8371;52.272;9.746;2023-11-18T00:48:28;6.60;;;5.83;;
16516;SDS011;8371;52.272;9.746;2023-11-18T00:50:55;6.27;;;5.87;;
16516;SDS011;8371;52.272;9.746;2023-11-18T00:53:21;7.37;;;6.77;;
16516;SDS011;8371;52.272;9.746;2023-11-18T00:55:48;6.57;;;6.27;;
16516;SDS011;8371;52.272;9.746;2023-11-18T00:58:14;7.07;;;6.67;;
16516;SDS011;8371;52.272;9.746;2023-11-18T01:00:39;6.00;;;5.70;;
16516;SDS011;8371;52.272;9.746;2023-11-18T01:03:05;6.97;;;6.67;;
16516;SDS011;8371;52.272;9.746;2023-11-18T01:05:31;6.40;;;6.10;;
16516;SDS011;8371;52.272;9.746;2023-11-18T01:07:57;6.63;;;6.23;;
16516;SDS011;8371;52.272;9.746;2023-11-18T01:10:23;5.50;;;5.30;;
16516;SDS011;8371;52.272;9.746;2023-11-18T01:12:48;6.27;;;5.97;;
16516;SDS011;8371;52.272;9.746;2023-11-18T01:15:14;6.33;;;6.03;;
16516;SDS011;8371;52.272;9.746;2023-11-18T01:17:40;6.27;;;5.97;;
16516;SDS011;8371;52.272;9.746;2023-11-18T01:20:06;6.07;;;5.77;;
16516;SDS011;8371;52.272;9.746;2023-11-18T01:22:35;6.20;;;5.90;;
16516;SDS011;8371;52.272;9.746;2023-11-18T01:25:01;6.07;;;5.77;;
16516;SDS011;8371;52.272;9.746;2023-11-18T01:27:27;6.03;;;5.73;;
16516;SDS011;8371;52.272;9.746;2023-11-18T01:29:53;6.43;;;6.13;;
16516;SDS011;8371;52.272;9.746;2023-11-18T01:32:19;5.73;;;5.43;;
16516;SDS011;8371;52.272;9.746;2023-11-18T01:34:44;6.00;;;5.70;;
16516;SDS011;8371;52.272;9.746;2023-11-18T01:37:12;6.30;;;5.73;;
16516;SDS011;8371;52.272;9.746;2023-11-18T01:39:38;5.93;;;5.73;;
16516;SDS011;8371;52.272;9.746;2023-11-18T01:42:04;6.23;;;6.00;;
16516;SDS011;8371;52.272;9.746;2023-11-18T01:44:30;6.33;;;6.03;;
16516;SDS011;8371;52.272;9.746;2023-11-18T01:46:56;5.73;;;5.50;;
16516;SDS011;8371;52.272;9.746;2023-11-18T01:49:23;6.90;;;6.47;;
16516;SDS011;8371;52.272;9.746;2023-11-18T01:51:50;5.83;;;5.60;;
16516;SDS011;8371;52.272;9.746;2023-11-18T01:54:22;6.43;;;6.13;;
16516;SDS011;8371;52.272;9.746;2023-11-18T01:56:49;7.13;;;6.73;;
16516;SDS011;8371;52.272;9.746;2023-11-18T01:59:16;6.00;;;5.70;;
16516;SDS011;8371;52.272;9.746;2023-11-18T02:01:46;6.53;;;6.13;;
16516;SDS011;8371;52.272;9.746;2023-11-18T02:04:13;6.10;;;5.80;;
16516;SDS011;8371;52.272;9.746;2023-11-18T02:06:40;6.80;;;6.30;;
16516;SDS011;8371;52.272;9.746;2023-11-18T02:09:06;6.33;;;5.93;;
16516;SDS011;8371;52.272;9.746;2023-11-18T02:11:37;7.40;;;6.93;;
16516;SDS011;8371;52.272;9.746;2023-11-18T02:14:07;5.90;;;5.67;;
16516;SDS011;8371;52.272;9.746;2023-11-18T02:16:35;6.20;;;5.90;;
16516;SDS011;8371;52.272;9.746;2023-11-18T02:19:01;5.47;;;5.27;;
16516;SDS011;8371;52.272;9.746;2023-11-18T02:21:31;5.87;;;5.57;;
16516;SDS011;8371;52.272;9.746;2023-11-18T02:23:59;5.30;;;5.00;;
16516;SDS011;8371;52.272;9.746;2023-11-18T02:26:24;5.33;;;5.13;;
16516;SDS011;8371;52.272;9.746;2023-11-18T02:28:51;5.77;;;5.57;;
16516;SDS011;8371;52.272;9.746;2023-11-18T02:31:30;5.70;;;5.50;;
16516;SDS011;8371;52.272;9.746;2023-11-18T02:34:00;5.40;;;5.20;;
16516;SDS011;8371;52.272;9.746;2023-11-18T02:36:34;5.67;;;5.37;;
16516;SDS011;8371;52.272;9.746;2023-11-18T02:39:06;5.00;;;4.70;;
16516;SDS011;8371;52.272;9.746;2023-11-18T02:41:36;5.27;;;5.07;;
16516;SDS011;8371;52.272;9.746;2023-11-18T02:44:04;5.80;;;5.40;;
16516;SDS011;8371;52.272;9.746;2023-11-18T02:46:36;5.87;;;5.67;;
16516;SDS011;8371;52.272;9.746;2023-11-18T02:49:04;6.03;;;5.73;;
16516;SDS011;8371;52.272;9.746;2023-11-18T02:51:29;6.73;;;6.43;;
16516;SDS011;8371;52.272;9.746;2023-11-18T02:54:00;6.33;;;6.00;;
16516;SDS011;8371;52.272;9.746;2023-11-18T02:56:26;6.20;;;6.00;;
16516;SDS011;8371;52.272;9.746;2023-11-18T02:58:51;6.03;;;5.77;;
16516;SDS011;8371;52.272;9.746;2023-11-18T03:01:17;5.63;;;5.40;;
16516;SDS011;8371;52.272;9.746;2023-11-18T03:03:44;5.97;;;5.77;;
16516;SDS011;8371;52.272;9.746;2023-11-18T03:06:10;6.87;;;6.47;;
16516;SDS011;8371;52.272;9.746;2023-11-18T03:08:36;6.20;;;5.90;;
16516;SDS011;8371;52.272;9.746;2023-11-18T03:11:02;6.60;;;6.30;;
16516;SDS011;8371;52.272;9.746;2023-11-18T03:13:30;6.40;;;5.90;;
16516;SDS011;8371;52.272;9.746;2023-11-18T03:15:55;7.03;;;6.73;;
16516;SDS011;8371;52.272;9.746;2023-11-18T03:18:21;6.93;;;6.60;;
16516;SDS011;8371;52.272;9.746;2023-11-18T03:20:48;6.50;;;6.20;;
16516;SDS011;8371;52.272;9.746;2023-11-18T03:23:14;6.70;;;6.40;;
16516;SDS011;8371;52.272;9.746;2023-11-18T03:25:40;6.13;;;5.83;;
16516;SDS011;8371;52.272;9.746;2023-11-18T03:28:05;7.10;;;6.70;;
16516;SDS011;8371;52.272;9.746;2023-11-18T03:30:32;6.53;;;6.23;;
16516;SDS011;8371;52.272;9.746;2023-11-18T03:32:58;7.33;;;6.90;;
16516;SDS011;8371;52.272;9.746;2023-11-18T03:35:24;6.33;;;6.07;;
16516;SDS011;8371;52.272;9.746;2023-11-18T03:37:50;8.23;;;7.60;;
16516;SDS011;8371;52.272;9.746;2023-11-18T03:40:17;7.30;;;7.00;;
16516;SDS011;8371;52.272;9.746;2023-11-18T03:42:42;6.90;;;6.60;;
16516;SDS011;8371;52.272;9.746;2023-11-18T03:45:11;7.77;;;7.37;;
16516;SDS011;8371;52.272;9.746;2023-11-18T03:47:36;7.50;;;7.20;;
16516;SDS011;8371;52.272;9.746;2023-11-18T03:50:03;6.93;;;6.63;;
16516;SDS011;8371;52.272;9.746;2023-11-18T03:52:30;7.20;;;6.80;;
16516;SDS011;8371;52.272;9.746;2023-11-18T03:54:56;7.13;;;6.83;;
16516;SDS011;8371;52.272;9.746;2023-11-18T03:57:21;7.90;;;7.47;;
16516;SDS011;8371;52.272;9.746;2023-11-18T03:59:47;7.67;;;7.37;;
16516;SDS011;8371;52.272;9.746;2023-11-18T04:02:13;7.83;;;7.33;;
16516;SDS011;8371;52.272;9.746;2023-11-18T04:04:39;8.77;;;7.00;;
16516;SDS011;8371;52.272;9.746;2023-11-18T04:07:04;8.57;;;8.03;;
16516;SDS011;8371;52.272;9.746;2023-11-18T04:09:32;7.97;;;7.57;;
16516;SDS011;8371;52.272;9.746;2023-11-18T04:11:58;8.27;;;7.77;;
16516;SDS011;8371;52.272;9.746;2023-11-18T04:14:23;7.87;;;7.37;;
16516;SDS011;8371;52.272;9.746;2023-11-18T04:16:51;9.40;;;8.57;;
16516;SDS011;8371;52.272;9.746;2023-11-18T04:19:17;8.37;;;7.87;;
16516;SDS011;8371;52.272;9.746;2023-11-18T04:21:43;8.90;;;8.23;;
16516;SDS011;8371;52.272;9.746;2023-11-18T04:24:11;9.90;;;9.30;;
16516;SDS011;8371;52.272;9.746;2023-11-18T04:26:36;9.37;;;8.80;;
16516;SDS011;8371;52.272;9.746;2023-11-18T04:29:02;9.43;;;8.80;;
16516;SDS011;8371;52.272;9.746;2023-11-18T04:31:28;7.80;;;7.30;;
16516;SDS011;8371;52.272;9.746;2023-11-18T04:33:53;9.30;;;8.73;;
16516;SDS011;8371;52.272;9.746;2023-11-18T04:36:21;8.83;;;8.23;;
16516;SDS011;8371;52.272;9.746;2023-11-18T04:38:47;9.37;;;8.70;;
16516;SDS011;8371;52.272;9.746;2023-11-18T04:41:14;9.63;;;8.90;;
16516;SDS011;8371;52.272;9.746;2023-11-18T04:43:40;9.77;;;9.03;;
16516;SDS011;8371;52.272;9.746;2023-11-18T04:46:07;9.43;;;8.80;;
16516;SDS011;8371;52.272;9.746;2023-11-18T04:48:33;8.93;;;8.43;;
16516;SDS011;8371;52.272;9.746;2023-11-18T04:51:00;8.97;;;8.17;;
16516;SDS011;8371;52.272;9.746;2023-11-18T04:53:26;9.13;;;8.63;;
16516;SDS011;8371;52.272;9.746;2023-11-18T04:55:52;7.60;;;7.20;;
16516;SDS011;8371;52.272;9.746;2023-11-18T04:58:18;9.53;;;8.93;;
16516;SDS011;8371;52.272;9.746;2023-11-18T05:00:44;10.50;;;9.70;;
16516;SDS011;8371;52.272;9.746;2023-11-18T05:03:10;10.13;;;9.43;;
16516;SDS011;8371;52.272;9.746;2023-11-18T05:05:36;10.03;;;9.33;;
16516;SDS011;8371;52.272;9.746;2023-11-18T05:08:05;9.23;;;8.63;;
16516;SDS011;8371;52.272;9.746;2023-11-18T05:10:32;10.10;;;9.40;;
16516;SDS011;8371;52.272;9.746;2023-11-18T05:12:59;9.67;;;8.97;;
16516;SDS011;8371;52.272;9.746;2023-11-18T05:15:25;8.73;;;8.23;;
16516;SDS011;8371;52.272;9.746;2023-11-18T05:17:51;8.50;;;8.03;;
16516;SDS011;8371;52.272;9.746;2023-11-18T05:20:18;8.93;;;8.30;;
16516;SDS011;8371;52.272;9.746;2023-11-18T05:22:44;8.53;;;8.07;;
16516;SDS011;8371;52.272;9.746;2023-11-18T05:25:09;9.40;;;8.80;;
16516;SDS011;8371;52.272;9.746;2023-11-18T05:27:35;8.83;;;8.17;;
16516;SDS011;8371;52.272;9.746;2023-11-18T05:30:02;9.43;;;8.73;;
16516;SDS011;8371;52.272;9.746;2023-11-18T05:32:28;8.80;;;8.30;;
16516;SDS011;8371;52.272;9.746;2023-11-18T05:34:54;9.67;;;8.87;;
16516;SDS011;8371;52.272;9.746;2023-11-18T05:37:22;9.80;;;9.03;;
16516;SDS011;8371;52.272;9.746;2023-11-18T05:39:48;9.23;;;8.63;;
16516;SDS011;8371;52.272;9.746;2023-11-18T05:42:15;10.17;;;9.40;;
16516;SDS011;8371;52.272;9.746;2023-11-18T05:44:41;9.40;;;8.80;;
16516;SDS011;8371;52.272;9.746;2023-11-18T05:47:08;9.90;;;9.10;;
16516;SDS011;8371;52.272;9.746;2023-11-18T05:49:36;9.97;;;9.30;;
16516;SDS011;8371;52.272;9.746;2023-11-18T05:52:01;9.43;;;8.73;;
16516;SDS011;8371;52.272;9.746;2023-11-18T05:54:27;8.97;;;8.37;;
16516;SDS011;8371;52.272;9.746;2023-11-18T05:56:53;7.80;;;7.37;;
16516;SDS011;8371;52.272;9.746;2023-11-18T05:59:21;9.23;;;8.50;;
16516;SDS011;8371;52.272;9.746;2023-11-18T06:01:47;9.87;;;8.97;;
16516;SDS011;8371;52.272;9.746;2023-11-18T06:04:13;11.43;;;10.33;;
16516;SDS011;8371;52.272;9.746;2023-11-18T06:06:39;10.30;;;9.30;;
16516;SDS011;8371;52.272;9.746;2023-11-18T06:09:04;10.97;;;10.00;;
16516;SDS011;8371;52.272;9.746;2023-11-18T06:11:32;11.20;;;10.23;;
16516;SDS011;8371;52.272;9.746;2023-11-18T06:13:58;13.97;;;11.40;;
16516;SDS011;8371;52.272;9.746;2023-11-18T06:16:24;13.30;;;11.73;;
16516;SDS011;8371;52.272;9.746;2023-11-18T06:18:51;12.20;;;10.93;;
16516;SDS011;8371;52.272;9.746;2023-11-18T06:21:19;12.53;;;11.13;;
16516;SDS011;8371;52.272;9.746;2023-11-18T06:23:46;18.07;;;12.33;;
16516;SDS011;8371;52.272;9.746;2023-11-18T06:26:14;13.60;;;10.80;;
16516;SDS011;8371;52.272;9.746;2023-11-18T06:28:41;14.93;;;11.40;;
16516;SDS011;8371;52.272;9.746;2023-11-18T06:31:08;12.80;;;11.53;;
16516;SDS011;8371;52.272;9.746;2023-11-18T06:33:41;14.47;;;12.37;;
16516;SDS011;8371;52.272;9.746;2023-11-18T06:38:44;14.73;;;11.97;;
16516;SDS011;8371;52.272;9.746;2023-11-18T06:41:10;13.33;;;11.50;;
16516;SDS011;8371;52.272;9.746;2023-11-18T06:43:38;14.63;;;12.03;;
16516;SDS011;8371;52.272;9.746;2023-11-18T06:46:24;14.50;;;11.13;;
16516;SDS011;8371;52.272;9.746;2023-11-18T06:48:56;13.83;;;11.23;;
16516;SDS011;8371;52.272;9.746;2023-11-18T06:54:05;19.73;;;12.00;;
16516;SDS011;8371;52.272;9.746;2023-11-18T06:56:39;12.10;;;10.83;;
16516;SDS011;8371;52.272;9.746;2023-11-18T06:59:07;16.00;;;11.87;;
16516;SDS011;8371;52.272;9.746;2023-11-18T07:01:33;11.70;;;10.63;;
16516;SDS011;8371;52.272;9.746;2023-11-18T07:03:59;12.60;;;10.30;;
16516;SDS011;8371;52.272;9.746;2023-11-18T07:06:25;14.17;;;11.60;;
16516;SDS011;8371;52.272;9.746;2023-11-18T07:08:52;13.60;;;12.20;;
16516;SDS011;8371;52.272;9.746;2023-11-18T07:11:20;13.53;;;11.33;;
16516;SDS011;8371;52.272;9.746;2023-11-18T07:13:47;12.37;;;10.60;;
16516;SDS011;8371;52.272;9.746;2023-11-18T07:16:14;13.23;;;11.63;;
16516;SDS011;8371;52.272;9.746;2023-11-18T07:18:41;12.97;;;11.53;;
16516;SDS011;8371;52.272;9.746;2023-11-18T07:21:09;13.67;;;11.23;;
16516;SDS011;8371;52.272;9.746;2023-11-18T07:23:35;11.13;;;10.27;;
16516;SDS011;8371;52.272;9.746;2023-11-18T07:26:01;11.90;;;10.70;;
16516;SDS011;8371;52.272;9.746;2023-11-18T07:28:29;13.67;;;11.10;;
16516;SDS011;8371;52.272;9.746;2023-11-18T07:30:56;11.23;;;10.17;;
16516;SDS011;8371;52.272;9.746;2023-11-18T07:33:23;13.20;;;11.37;;
16516;SDS011;8371;52.272;9.746;2023-11-18T07:35:49;14.10;;;10.73;;
16516;SDS011;8371;52.272;9.746;2023-11-18T07:38:15;10.53;;;9.50;;
16516;SDS011;8371;52.272;9.746;2023-11-18T07:40:41;12.00;;;9.87;;
16516;SDS011;8371;52.272;9.746;2023-11-18T07:43:09;14.17;;;10.53;;
16516;SDS011;8371;52.272;9.746;2023-11-18T07:45:38;13.37;;;11.13;;
16516;SDS011;8371;52.272;9.746;2023-11-18T07:48:08;15.40;;;10.80;;
16516;SDS011;8371;52.272;9.746;2023-11-18T07:50:56;11.97;;;9.93;;
16516;SDS011;8371;52.272;9.746;2023-11-18T07:53:22;12.33;;;10.10;;
16516;SDS011;8371;52.272;9.746;2023-11-18T07:55:48;13.63;;;11.70;;
16516;SDS011;8371;52.272;9.746;2023-11-18T07:58:15;13.23;;;10.37;;
16516;SDS011;8371;52.272;9.746;2023-11-18T08:00:43;11.43;;;9.57;;
16516;SDS011;8371;52.272;9.746;2023-11-18T08:03:11;14.13;;;11.33;;
16516;SDS011;8371;52.272;9.746;2023-11-18T08:05:44;14.60;;;10.00;;
16516;SDS011;8371;52.272;9.746;2023-11-18T08:08:07;11.20;;;9.77;;
16516;SDS011;8371;52.272;9.746;2023-11-18T08:10:34;12.03;;;10.40;;
16516;SDS011;8371;52.272;9.746;2023-11-18T08:13:02;12.13;;;10.93;;
16516;SDS011;8371;52.272;9.746;2023-11-18T08:15:27;11.53;;;9.93;;
16516;SDS011;8371;52.272;9.746;2023-11-18T08:17:54;14.40;;;11.03;;
16516;SDS011;8371;52.272;9.746;2023-11-18T08:20:20;13.83;;;10.93;;
16516;SDS011;8371;52.272;9.746;2023-11-18T08:22:48;10.50;;;9.47;;
16516;SDS011;8371;52.272;9.746;2023-11-18T08:25:14;12.43;;;10.47;;
16516;SDS011;8371;52.272;9.746;2023-11-18T08:27:40;13.30;;;10.27;;
16516;SDS011;8371;52.272;9.746;2023-11-18T08:30:07;13.33;;;10.50;;
16516;SDS011;8371;52.272;9.746;2023-11-18T08:32:37;13.37;;;10.73;;
16516;SDS011;8371;52.272;9.746;2023-11-18T08:35:05;13.43;;;10.63;;
16516;SDS011;8371;52.272;9.746;2023-11-18T08:37:36;11.97;;;10.37;;
16516;SDS011;8371;52.272;9.746;2023-11-18T08:40:04;10.87;;;9.77;;
16516;SDS011;8371;52.272;9.746;2023-11-18T08:42:32;12.57;;;10.23;;
16516;SDS011;8371;52.272;9.746;2023-11-18T08:44:59;13.90;;;10.73;;
16516;SDS011;8371;52.272;9.746;2023-11-18T08:47:26;14.37;;;11.10;;
16516;SDS011;8371;52.272;9.746;2023-11-18T08:49:52;16.07;;;11.47;;
16516;SDS011;8371;52.272;9.746;2023-11-18T08:52:18;15.83;;;10.97;;
16516;SDS011;8371;52.272;9.746;2023-11-18T08:54:44;12.37;;;10.57;;
16516;SDS011;8371;52.272;9.746;2023-11-18T08:57:28;13.20;;;10.63;;
16516;SDS011;8371;52.272;9.746;2023-11-18T08:59:55;11.47;;;10.17;;
16516;SDS011;8371;52.272;9.746;2023-11-18T09:02:23;14.57;;;11.53;;
16516;SDS011;8371;52.272;9.746;2023-11-18T09:04:49;12.73;;;11.43;;
16516;SDS011;8371;52.272;9.746;2023-11-18T09:07:15;13.60;;;10.77;;
16516;SDS011;8371;52.272;9.746;2023-11-18T09:09:41;12.27;;;11.07;;
16516;SDS011;8371;52.272;9.746;2023-11-18T09:12:08;11.43;;;10.13;;
16516;SDS011;8371;52.272;9.746;2023-11-18T09:14:34;11.93;;;10.73;;
16516;SDS011;8371;52.272;9.746;2023-11-18T09:16:59;14.73;;;11.23;;
16516;SDS011;8371;52.272;9.746;2023-11-18T09:19:27;11.63;;;10.43;;
16516;SDS011;8371;52.272;9.746;2023-11-18T09:21:53;12.87;;;10.50;;
16516;SDS011;8371;52.272;9.746;2023-11-18T09:24:20;12.13;;;10.83;;
16516;SDS011;8371;52.272;9.746;2023-11-18T09:26:48;14.57;;;11.13;;
16516;SDS011;8371;52.272;9.746;2023-11-18T09:29:15;14.33;;;11.33;;
16516;SDS011;8371;52.272;9.746;2023-11-18T09:31:46;13.87;;;10.80;;
16516;SDS011;8371;52.272;9.746;2023-11-18T09:34:14;12.03;;;10.87;;
16516;SDS011;8371;52.272;9.746;2023-11-18T09:36:46;11.97;;;10.53;;
16516;SDS011;8371;52.272;9.746;2023-11-18T09:39:10;13.07;;;10.53;;
16516;SDS011;8371;52.272;9.746;2023-11-18T09:41:43;13.10;;;10.37;;
16516;SDS011;8371;52.272;9.746;2023-11-18T09:44:09;11.37;;;9.93;;
16516;SDS011;8371;52.272;9.746;2023-11-18T09:46:37;11.07;;;9.80;;
16516;SDS011;8371;52.272;9.746;2023-11-18T09:49:11;15.73;;;10.73;;
16516;SDS011;8371;52.272;9.746;2023-11-18T09:51:47;12.60;;;11.00;;
16516;SDS011;8371;52.272;9.746;2023-11-18T09:57:32;9.77;;;8.73;;
16516;SDS011;8371;52.272;9.746;2023-11-18T10:00:07;9.87;;;8.90;;
16516;SDS011;8371;52.272;9.746;2023-11-18T10:02:48;10.57;;;9.50;;
16516;SDS011;8371;52.272;9.746;2023-11-18T10:05:16;13.40;;;9.50;;
16516;SDS011;8371;52.272;9.746;2023-11-18T10:07:44;9.90;;;8.90;;
16516;SDS011;8371;52.272;9.746;2023-11-18T10:10:13;9.93;;;9.00;;
16516;SDS011;8371;52.272;9.746;2023-11-18T10:12:42;9.00;;;8.17;;
16516;SDS011;8371;52.272;9.746;2023-11-18T10:15:21;8.80;;;7.97;;
16516;SDS011;8371;52.272;9.746;2023-11-18T10:17:54;9.07;;;8.17;;
16516;SDS011;8371;52.272;9.746;2023-11-18T10:23:16;8.17;;;7.37;;
16516;SDS011;8371;52.272;9.746;2023-11-18T10:25:50;8.10;;;7.30;;
16516;SDS011;8371;52.272;9.746;2023-11-18T10:33:31;7.37;;;6.67;;
16516;SDS011;8371;52.272;9.746;2023-11-18T10:35:59;6.90;;;6.30;;
16516;SDS011;8371;52.272;9.746;2023-11-18T10:38:27;6.87;;;6.33;;
16516;SDS011;8371;52.272;9.746;2023-11-18T10:40:55;7.10;;;6.43;;
16516;SDS011;8371;52.272;9.746;2023-11-18T10:43:21;6.07;;;5.67;;
16516;SDS011;8371;52.272;9.746;2023-11-18T10:45:50;6.20;;;5.60;;
16516;SDS011;8371;52.272;9.746;2023-11-18T10:48:18;5.23;;;4.83;;
16516;SDS011;8371;52.272;9.746;2023-11-18T10:50:46;4.63;;;4.33;;
16516;SDS011;8371;52.272;9.746;2023-11-18T10:53:15;4.70;;;4.40;;
16516;SDS011;8371;52.272;9.746;2023-11-18T10:55:41;3.80;;;3.60;;
16516;SDS011;8371;52.272;9.746;2023-11-18T10:58:09;3.70;;;3.50;;
16516;SDS011;8371;52.272;9.746;2023-11-18T11:00:53;3.50;;;3.30;;
16516;SDS011;8371;52.272;9.746;2023-11-18T11:03:13;3.30;;;3.10;;
16516;SDS011;8371;52.272;9.746;2023-11-18T11:05:39;2.70;;;2.60;;
16516;SDS011;8371;52.272;9.746;2023-11-18T11:08:08;2.90;;;2.70;;
16516;SDS011;8371;52.272;9.746;2023-11-18T11:10:34;2.80;;;2.70;;
16516;SDS011;8371;52.272;9.746;2023-11-18T11:13:01;3.03;;;2.90;;
16516;SDS011;8371;52.272;9.746;2023-11-18T11:15:31;2.47;;;2.37;;
16516;SDS011;8371;52.272;9.746;2023-11-18T11:17:58;2.60;;;2.50;;
16516;SDS011;8371;52.272;9.746;2023-11-18T11:20:30;2.57;;;2.40;;
16516;SDS011;8371;52.272;9.746;2023-11-18T11:28:42;2.57;;;2.47;;
16516;SDS011;8371;52.272;9.746;2023-11-18T11:31:12;2.17;;;2.07;;
16516;SDS011;8371;52.272;9.746;2023-11-18T11:33:46;2.50;;;2.40;;
16516;SDS011;8371;52.272;9.746;2023-11-18T11:36:17;2.20;;;2.10;;
16516;SDS011;8371;52.272;9.746;2023-11-18T11:38:47;2.53;;;2.43;;
16516;SDS011;8371;52.272;9.746;2023-11-18T11:41:14;2.60;;;2.40;;
16516;SDS011;8371;52.272;9.746;2023-11-18T11:43:42;3.33;;;3.23;;
16516;SDS011;8371;52.272;9.746;2023-11-18T11:46:10;3.77;;;3.07;;
16516;SDS011;8371;52.272;9.746;2023-11-18T11:48:36;3.17;;;3.07;;
16516;SDS011;8371;52.272;9.746;2023-11-18T11:51:05;3.07;;;2.97;;
16516;SDS011;8371;52.272;9.746;2023-11-18T11:53:35;3.27;;;2.67;;
16516;SDS011;8371;52.272;9.746;2023-11-18T11:56:04;2.57;;;2.47;;
16516;SDS011;8371;52.272;9.746;2023-11-18T11:58:36;3.30;;;3.10;;
16516;SDS011;8371;52.272;9.746;2023-11-18T12:01:47;3.23;;;3.03;;
16516;SDS011;8371;52.272;9.746;2023-11-18T12:03:43;2.60;;;2.50;;
16516;SDS011;8371;52.272;9.746;2023-11-18T12:06:17;3.83;;;3.53;;
16516;SDS011;8371;52.272;9.746;2023-11-18T12:08:46;2.97;;;2.87;;
16516;SDS011;8371;52.272;9.746;2023-11-18T12:11:11;2.93;;;2.83;;
16516;SDS011;8371;52.272;9.746;2023-11-18T12:13:38;2.93;;;2.83;;
16516;SDS011;8371;52.272;9.746;2023-11-18T12:16:06;3.07;;;2.97;;
16516;SDS011;8371;52.272;9.746;2023-11-18T12:18:33;3.90;;;3.50;;
16516;SDS011;8371;52.272;9.746;2023-11-18T12:21:01;3.17;;;3.07;;
16516;SDS011;8371;52.272;9.746;2023-11-18T12:23:29;2.67;;;2.57;;
16516;SDS011;8371;52.272;9.746;2023-11-18T12:25:57;3.13;;;3.03;;
16516;SDS011;8371;52.272;9.746;2023-11-18T12:28:28;3.33;;;3.13;;
16516;SDS011;8371;52.272;9.746;2023-11-18T12:31:02;3.37;;;3.27;;
16516;SDS011;8371;52.272;9.746;2023-11-18T12:33:51;3.03;;;2.93;;
16516;SDS011;8371;52.272;9.746;2023-11-18T12:41:42;3.50;;;3.30;;
16516;SDS011;8371;52.272;9.746;2023-11-18T12:47:01;2.97;;;2.87;;
16516;SDS011;8371;52.272;9.746;2023-11-18T12:49:30;4.27;;;3.50;;
16516;SDS011;8371;52.272;9.746;2023-11-18T12:51:58;3.47;;;3.37;;
16516;SDS011;8371;52.272;9.746;2023-11-18T12:54:25;3.53;;;3.30;;
16516;SDS011;8371;52.272;9.746;2023-11-18T12:56:55;3.00;;;2.90;;
16516;SDS011;8371;52.272;9.746;2023-11-18T12:59:21;3.30;;;3.20;;
16516;SDS011;8371;52.272;9.746;2023-11-18T13:01:47;3.43;;;3.20;;
16516;SDS011;8371;52.272;9.746;2023-11-18T13:04:21;3.03;;;2.83;;
16516;SDS011;8371;52.272;9.746;2023-11-18T13:06:46;3.10;;;3.00;;
16516;SDS011;8371;52.272;9.746;2023-11-18T13:09:14;3.03;;;2.93;;
16516;SDS011;8371;52.272;9.746;2023-11-18T13:11:42;3.20;;;3.10;;
16516;SDS011;8371;52.272;9.746;2023-11-18T13:14:08;3.10;;;3.00;;
16516;SDS011;8371;52.272;9.746;2023-11-18T13:16:34;2.93;;;2.83;;
16516;SDS011;8371;52.272;9.746;2023-11-18T13:18:59;3.27;;;3.17;;
16516;SDS011;8371;52.272;9.746;2023-11-18T13:21:25;2.67;;;2.57;;
16516;SDS011;8371;52.272;9.746;2023-11-18T13:23:53;2.93;;;2.80;;
16516;SDS011;8371;52.272;9.746;2023-11-18T13:26:20;3.20;;;3.00;;
16516;SDS011;8371;52.272;9.746;2023-11-18T13:28:46;3.10;;;3.00;;
16516;SDS011;8371;52.272;9.746;2023-11-18T13:31:13;2.83;;;2.73;;
16516;SDS011;8371;52.272;9.746;2023-11-18T13:33:41;3.30;;;3.20;;
16516;SDS011;8371;52.272;9.746;2023-11-18T13:36:11;3.13;;;3.03;;
16516;SDS011;8371;52.272;9.746;2023-11-18T13:38:40;3.10;;;3.00;;
16516;SDS011;8371;52.272;9.746;2023-11-18T13:41:07;2.80;;;2.70;;
16516;SDS011;8371;52.272;9.746;2023-11-18T13:43:41;6.80;;;3.17;;
16516;SDS011;8371;52.272;9.746;2023-11-18T13:46:12;2.77;;;2.67;;
16516;SDS011;8371;52.272;9.746;2023-11-18T13:48:47;3.70;;;3.60;;
16516;SDS011;8371;52.272;9.746;2023-11-18T13:51:14;3.80;;;3.60;;
16516;SDS011;8371;52.272;9.746;2023-11-18T13:53:42;3.00;;;2.90;;
16516;SDS011;8371;52.272;9.746;2023-11-18T13:56:12;3.73;;;3.43;;
16516;SDS011;8371;52.272;9.746;2023-11-18T13:58:38;4.10;;;3.90;;
16516;SDS011;8371;52.272;9.746;2023-11-18T14:01:07;3.80;;;3.60;;
16516;SDS011;8371;52.272;9.746;2023-11-18T14:03:36;3.87;;;3.77;;
16516;SDS011;8371;52.272;9.746;2023-11-18T14:06:05;3.40;;;3.30;;
16516;SDS011;8371;52.272;9.746;2023-11-18T14:08:31;3.73;;;3.53;;
16516;SDS011;8371;52.272;9.746;2023-11-18T14:10:59;3.53;;;3.43;;
16516;SDS011;8371;52.272;9.746;2023-11-18T14:13:25;3.80;;;3.60;;
16516;SDS011;8371;52.272;9.746;2023-11-18T14:15:53;4.10;;;3.50;;
16516;SDS011;8371;52.272;9.746;2023-11-18T14:18:21;3.30;;;3.10;;
16516;SDS011;8371;52.272;9.746;2023-11-18T14:20:46;3.50;;;3.40;;
16516;SDS011;8371;52.272;9.746;2023-11-18T14:23:15;3.73;;;3.40;;
16516;SDS011;8371;52.272;9.746;2023-11-18T14:25:40;3.87;;;3.70;;
16516;SDS011;8371;52.272;9.746;2023-11-18T14:28:06;3.80;;;3.00;;
16516;SDS011;8371;52.272;9.746;2023-11-18T14:30:34;3.47;;;3.37;;
16516;SDS011;8371;52.272;9.746;2023-11-18T14:32:59;3.97;;;3.77;;
16516;SDS011;8371;52.272;9.746;2023-11-18T14:35:25;3.43;;;3.33;;
16516;SDS011;8371;52.272;9.746;2023-11-18T14:37:51;3.60;;;3.50;;
16516;SDS011;8371;52.272;9.746;2023-11-18T14:40:17;3.13;;;3.03;;
16516;SDS011;8371;52.272;9.746;2023-11-18T14:42:44;3.40;;;3.30;;
16516;SDS011;8371;52.272;9.746;2023-11-18T14:45:12;3.33;;;3.20;;
16516;SDS011;8371;52.272;9.746;2023-11-18T14:47:39;3.50;;;3.40;;
16516;SDS011;8371;52.272;9.746;2023-11-18T14:50:06;2.80;;;2.70;;
16516;SDS011;8371;52.272;9.746;2023-11-18T14:52:34;3.10;;;3.00;;
16516;SDS011;8371;52.272;9.746;2023-11-18T14:55:01;2.97;;;2.87;;
16516;SDS011;8371;52.272;9.746;2023-11-18T14:57:30;2.87;;;2.77;;
16516;SDS011;8371;52.272;9.746;2023-11-18T14:59:59;2.70;;;2.50;;
16516;SDS011;8371;52.272;9.746;2023-11-18T15:02:24;3.10;;;3.00;;
16516;SDS011;8371;52.272;9.746;2023-11-18T15:04:53;2.93;;;2.83;;
16516;SDS011;8371;52.272;9.746;2023-11-18T15:07:19;2.40;;;2.30;;
16516;SDS011;8371;52.272;9.746;2023-11-18T15:09:45;3.00;;;2.90;;
16516;SDS011;8371;52.272;9.746;2023-11-18T15:12:13;2.80;;;2.70;;
16516;SDS011;8371;52.272;9.746;2023-11-18T15:14:38;3.30;;;3.20;;
16516;SDS011;8371;52.272;9.746;2023-11-18T15:17:04;2.97;;;2.87;;
16516;SDS011;8371;52.272;9.746;2023-11-18T15:19:30;3.17;;;3.00;;
16516;SDS011;8371;52.272;9.746;2023-11-18T15:21:57;3.40;;;3.30;;
16516;SDS011;8371;52.272;9.746;2023-11-18T15:24:26;3.47;;;3.37;;
16516;SDS011;8371;52.272;9.746;2023-11-18T15:26:51;3.00;;;2.90;;
16516;SDS011;8371;52.272;9.746;2023-11-18T15:29:18;3.30;;;3.10;;